createdAt,value
2017-07-31T00:02:02.460Z,73.00
2017-07-31T00:04:30.001Z,73.00
2017-07-31T00:06:57.581Z,73.10
2017-07-31T00:09:25.118Z,73.20
2017-07-31T00:11:53.013Z,73.20
2017-07-31T00:14:20.873Z,73.40
2017-07-31T00:16:48.445Z,73.60
2017-07-31T00:19:15.980Z,73.70
2017-07-31T00:21:43.556Z,73.70
2017-07-31T00:24:11.089Z,73.70
2017-07-31T00:26:38.660Z,73.90
2017-07-31T00:29:06.236Z,73.90
2017-07-31T00:31:33.768Z,74.10
2017-07-31T00:34:01.344Z,74.20
2017-07-31T00:36:28.881Z,74.30
2017-07-31T00:38:56.453Z,74.50
2017-07-31T00:41:23.988Z,74.60
2017-07-31T00:43:52.589Z,74.90
2017-07-31T00:46:20.137Z,74.90
2017-07-31T00:48:48.588Z,75.00
2017-07-31T00:51:16.434Z,74.90
2017-07-31T00:53:44.009Z,75.00
2017-07-31T00:56:11.548Z,74.90
2017-07-31T00:58:39.530Z,75.00
2017-07-31T01:01:07.070Z,75.00
2017-07-31T01:03:34.605Z,75.10
2017-07-31T01:06:02.201Z,75.10
2017-07-31T01:08:29.733Z,75.20
2017-07-31T01:10:57.306Z,75.30
2017-07-31T01:13:24.836Z,75.40
2017-07-31T01:15:52.750Z,75.70
2017-07-31T01:18:20.293Z,76.10
2017-07-31T01:20:47.866Z,76.50
2017-07-31T01:23:15.405Z,76.60
2017-07-31T01:25:43.017Z,76.90
2017-07-31T01:28:10.554Z,76.90
2017-07-31T01:30:38.109Z,76.90
2017-07-31T01:33:05.989Z,76.80
2017-07-31T01:35:33.525Z,76.70
2017-07-31T01:38:01.065Z,76.60
2017-07-31T01:40:28.650Z,76.50
2017-07-31T01:42:56.593Z,76.50
2017-07-31T01:45:24.134Z,76.50
2017-07-31T01:47:52.428Z,76.90
2017-07-31T01:50:20.000Z,76.90
2017-07-31T01:52:47.729Z,76.90
2017-07-31T01:55:15.262Z,76.90
2017-07-31T01:57:42.799Z,77.00
2017-07-31T02:00:10.753Z,77.20
2017-07-31T02:02:38.291Z,77.10
2017-07-31T02:05:06.593Z,77.40
2017-07-31T02:07:34.494Z,77.30
2017-07-31T02:10:02.030Z,77.60
2017-07-31T02:12:29.582Z,77.90
2017-07-31T02:14:57.473Z,77.90
2017-07-31T02:17:25.022Z,77.90
2017-07-31T02:19:52.569Z,77.70
2017-07-31T02:22:20.271Z,77.70
2017-07-31T02:24:47.810Z,77.60
2017-07-31T02:27:15.385Z,77.70
2017-07-31T02:29:42.915Z,77.60
2017-07-31T02:32:10.498Z,77.50
2017-07-31T02:34:38.037Z,77.60
2017-07-31T02:37:07.941Z,77.50
2017-07-31T02:39:37.314Z,77.70
2017-07-31T02:42:05.668Z,77.90
2017-07-31T02:44:33.199Z,77.70
2017-07-31T02:47:01.055Z,77.70
2017-07-31T02:49:28.605Z,77.60
2017-07-31T02:51:56.155Z,77.60
2017-07-31T02:54:24.505Z,77.80
2017-07-31T02:56:52.037Z,77.70
2017-07-31T02:59:19.614Z,77.80
2017-07-31T03:01:52.090Z,77.80
2017-07-31T03:04:19.621Z,77.70
2017-07-31T03:06:47.813Z,77.70
2017-07-31T03:09:16.337Z,77.70
2017-07-31T03:11:43.869Z,77.50
2017-07-31T03:14:11.616Z,77.60
2017-07-31T03:16:39.152Z,77.60
2017-07-31T03:19:06.734Z,77.60
2017-07-31T03:21:34.277Z,77.50
2017-07-31T03:24:02.317Z,77.60
2017-07-31T03:26:30.626Z,77.70
2017-07-31T03:28:58.166Z,77.70
2017-07-31T03:31:29.873Z,77.60
2017-07-31T03:33:57.412Z,77.80
2017-07-31T03:36:24.993Z,77.90
2017-07-31T03:38:52.524Z,77.90
2017-07-31T03:54:23.213Z,77.90
2017-07-31T03:56:51.508Z,78.80
2017-07-31T03:59:19.085Z,78.80
2017-07-31T04:01:46.613Z,78.70
2017-07-31T04:04:14.917Z,78.40
2017-07-31T04:06:46.622Z,78.40
2017-07-31T04:09:14.201Z,78.40
2017-07-31T04:11:41.739Z,79.10
2017-07-31T04:14:09.422Z,78.40
2017-07-31T04:16:37.774Z,79.20
2017-07-31T04:19:05.310Z,78.40
2017-07-31T04:21:32.893Z,78.40
2017-07-31T04:24:01.040Z,78.30
2017-07-31T04:26:28.569Z,78.40
2017-07-31T04:28:57.347Z,78.50
2017-07-31T04:31:25.734Z,79.30
2017-07-31T04:33:54.037Z,78.50
2017-07-31T04:36:21.942Z,78.50
2017-07-31T04:38:49.478Z,78.50
2017-07-31T04:41:17.052Z,78.60
2017-07-31T04:43:44.585Z,78.60
2017-07-31T04:46:12.158Z,78.50
2017-07-31T04:48:39.690Z,78.60
2017-07-31T04:51:08.635Z,78.80
2017-07-31T04:53:36.170Z,78.70
2017-07-31T04:56:03.701Z,78.80
2017-07-31T04:58:32.041Z,78.80
2017-07-31T05:00:59.573Z,78.80
2017-07-31T05:03:27.145Z,78.90
2017-07-31T05:05:54.681Z,78.80
2017-07-31T05:08:22.471Z,78.80
2017-07-31T05:10:50.194Z,78.80
2017-07-31T05:13:17.774Z,78.80
2017-07-31T05:15:45.311Z,78.80
2017-07-31T05:18:12.898Z,78.90
2017-07-31T05:20:40.433Z,78.80
2017-07-31T05:23:08.001Z,78.80
2017-07-31T05:25:35.539Z,78.90
2017-07-31T05:28:04.528Z,79.10
2017-07-31T05:30:32.841Z,79.90
2017-07-31T05:33:00.421Z,79.10
2017-07-31T05:35:27.957Z,79.10
2017-07-31T05:37:55.885Z,79.20
2017-07-31T05:40:23.802Z,79.30
2017-07-31T05:42:51.483Z,79.40
2017-07-31T05:45:19.123Z,79.30
2017-07-31T05:47:46.803Z,79.30
2017-07-31T05:50:14.873Z,79.30
2017-07-31T05:52:42.769Z,79.30
2017-07-31T05:55:34.400Z,79.60
2017-07-31T05:58:01.970Z,79.60
2017-07-31T06:00:29.500Z,79.60
2017-07-31T06:02:57.360Z,79.70
2017-07-31T06:05:24.897Z,79.70
2017-07-31T06:07:52.431Z,79.60
2017-07-31T06:10:20.914Z,79.60
2017-07-31T06:12:49.211Z,79.70
2017-07-31T06:15:17.633Z,79.60
2017-07-31T06:17:45.160Z,79.60
2017-07-31T06:20:12.697Z,79.50
2017-07-31T06:22:41.067Z,79.40
2017-07-31T06:25:09.378Z,79.50
2017-07-31T06:27:36.914Z,79.30
2017-07-31T06:30:05.722Z,79.50
2017-07-31T06:32:33.265Z,79.40
2017-07-31T06:35:01.564Z,79.00
2017-07-31T06:37:29.141Z,79.00
2017-07-31T06:39:56.673Z,79.10
2017-07-31T06:42:24.252Z,79.10
2017-07-31T06:44:51.826Z,79.00
2017-07-31T06:47:19.362Z,78.60
2017-07-31T06:49:47.078Z,78.50
2017-07-31T06:52:14.620Z,79.10
2017-07-31T06:54:42.203Z,77.80
2017-07-31T06:57:09.741Z,77.40
2017-07-31T06:59:38.563Z,76.80
2017-07-31T07:02:06.130Z,76.00
2017-07-31T07:04:34.482Z,75.00
2017-07-31T07:07:02.070Z,74.90
2017-07-31T07:09:30.373Z,74.30
2017-07-31T07:11:57.906Z,74.20
2017-07-31T07:14:26.249Z,73.50
2017-07-31T07:16:53.998Z,73.40
2017-07-31T07:19:21.585Z,73.00
2017-07-31T07:21:49.132Z,72.80
2017-07-31T07:24:16.856Z,72.30
2017-07-31T07:26:44.401Z,71.80
2017-07-31T07:29:11.992Z,71.20
2017-07-31T07:31:40.053Z,70.80
2017-07-31T07:34:07.610Z,70.40
2017-07-31T07:36:35.154Z,70.30
2017-07-31T07:39:03.159Z,70.10
2017-07-31T07:41:30.700Z,69.70
2017-07-31T07:43:58.239Z,69.40
2017-07-31T07:46:26.100Z,69.00
2017-07-31T07:48:54.405Z,68.60
2017-07-31T07:51:21.942Z,68.50
2017-07-31T07:53:49.530Z,67.90
2017-07-31T07:56:17.071Z,67.10
2017-07-31T07:58:44.709Z,66.70
2017-07-31T08:01:12.250Z,66.20
2017-07-31T08:03:39.829Z,65.50
2017-07-31T08:06:07.923Z,65.20
2017-07-31T08:08:36.226Z,65.00
2017-07-31T08:11:03.813Z,64.80
2017-07-31T08:13:31.358Z,64.20
2017-07-31T08:15:59.073Z,63.60
2017-07-31T08:18:27.374Z,62.90
2017-07-31T08:20:54.950Z,62.90
2017-07-31T08:23:22.485Z,62.80
2017-07-31T08:25:50.061Z,62.00
2017-07-31T08:28:17.656Z,62.40
2017-07-31T08:30:45.190Z,62.00
2017-07-31T08:33:12.728Z,61.50
2017-07-31T08:35:40.544Z,61.50
2017-07-31T08:38:08.087Z,61.70
2017-07-31T08:40:35.663Z,61.80
2017-07-31T08:43:03.192Z,61.60
2017-07-31T08:45:30.774Z,61.20
2017-07-31T08:47:58.309Z,60.70
2017-07-31T08:50:25.906Z,60.40
2017-07-31T08:52:53.448Z,60.40
2017-07-31T08:55:20.976Z,60.00
2017-07-31T08:57:48.637Z,59.70
2017-07-31T09:00:16.217Z,59.30
2017-07-31T09:02:43.744Z,59.30
2017-07-31T09:05:12.199Z,58.20
2017-07-31T09:07:40.105Z,58.20
2017-07-31T09:10:08.401Z,58.00
2017-07-31T09:12:36.238Z,58.00
2017-07-31T09:15:04.547Z,57.50
2017-07-31T09:17:32.082Z,57.50
2017-07-31T09:20:00.553Z,56.90
2017-07-31T09:22:28.901Z,56.20
2017-07-31T09:24:56.437Z,56.60
2017-07-31T09:27:24.285Z,56.70
2017-07-31T09:29:51.821Z,57.00
2017-07-31T09:32:20.126Z,57.40
2017-07-31T09:34:48.127Z,57.30
2017-07-31T09:37:15.669Z,57.20
2017-07-31T09:39:43.205Z,56.60
2017-07-31T09:42:11.362Z,56.10
2017-07-31T09:44:39.657Z,55.30
2017-07-31T09:47:07.196Z,55.30
2017-07-31T09:49:36.053Z,54.80
2017-07-31T09:52:03.595Z,54.70
2017-07-31T09:54:31.131Z,54.40
2017-07-31T09:56:58.725Z,54.10
2017-07-31T09:59:26.301Z,53.30
2017-07-31T10:01:53.841Z,52.80
2017-07-31T10:04:21.416Z,52.30
2017-07-31T10:06:49.368Z,50.60
2017-07-31T10:09:16.906Z,49.60
2017-07-31T10:11:44.481Z,49.30
2017-07-31T10:14:12.577Z,48.60
2017-07-31T10:16:40.120Z,47.60
2017-07-31T10:19:07.694Z,46.90
2017-07-31T10:21:35.221Z,46.50
2017-07-31T10:24:02.803Z,46.50
2017-07-31T10:26:30.341Z,46.30
2017-07-31T10:28:57.923Z,46.00
2017-07-31T10:31:25.470Z,45.80
2017-07-31T10:33:55.926Z,45.40
2017-07-31T10:36:23.492Z,44.80
2017-07-31T10:38:51.027Z,44.30
2017-07-31T10:41:18.609Z,44.20
2017-07-31T10:43:46.144Z,44.40
2017-07-31T10:46:13.682Z,44.50
2017-07-31T10:48:41.917Z,44.90
2017-07-31T10:51:09.446Z,45.20
2017-07-31T10:53:36.988Z,44.80
2017-07-31T10:56:04.552Z,44.30
2017-07-31T10:58:32.081Z,44.10
2017-07-31T11:01:00.422Z,44.00
2017-07-31T11:03:27.957Z,43.50
2017-07-31T11:05:55.840Z,43.20
2017-07-31T11:08:25.252Z,43.10
2017-07-31T11:10:53.189Z,43.30
2017-07-31T11:13:20.713Z,43.40
2017-07-31T11:15:48.246Z,43.30
2017-07-31T11:18:15.925Z,43.20
2017-07-31T11:20:43.453Z,42.90
2017-07-31T11:23:10.976Z,42.70
2017-07-31T11:25:39.386Z,43.10
2017-07-31T11:28:06.923Z,43.00
2017-07-31T11:30:34.461Z,42.80
2017-07-31T11:33:02.302Z,42.90
2017-07-31T11:35:29.873Z,42.60
2017-07-31T11:37:57.402Z,42.30
2017-07-31T11:40:24.978Z,42.00
2017-07-31T11:42:52.733Z,41.50
2017-07-31T11:45:20.266Z,41.60
2017-07-31T11:47:48.357Z,41.80
2017-07-31T11:50:15.890Z,41.50
2017-07-31T11:52:43.417Z,41.30
2017-07-31T11:55:11.112Z,41.10
2017-07-31T11:57:38.918Z,40.70
2017-07-31T12:00:06.450Z,40.60
2017-07-31T12:02:34.013Z,40.70
2017-07-31T12:05:02.830Z,40.40
2017-07-31T12:07:30.355Z,40.40
2017-07-31T12:09:58.379Z,40.20
2017-07-31T12:12:25.914Z,40.30
2017-07-31T12:14:57.364Z,40.10
2017-07-31T12:17:24.894Z,39.90
2017-07-31T12:19:52.461Z,39.90
2017-07-31T12:22:19.990Z,39.90
2017-07-31T12:24:48.653Z,39.50
2017-07-31T12:27:16.215Z,39.40
2017-07-31T12:29:43.754Z,39.50
2017-07-31T12:32:11.396Z,39.30
2017-07-31T12:34:38.987Z,39.30
2017-07-31T12:37:06.953Z,39.30
2017-07-31T12:39:34.488Z,39.00
2017-07-31T12:42:02.027Z,38.60
2017-07-31T12:44:29.604Z,38.70
2017-07-31T12:46:57.143Z,38.70
2017-07-31T12:49:30.069Z,38.70
2017-07-31T12:51:57.592Z,38.20
2017-07-31T12:54:25.118Z,38.20
2017-07-31T12:56:52.686Z,38.20
2017-07-31T12:59:20.998Z,37.90
2017-07-31T13:01:48.942Z,37.80
2017-07-31T13:04:17.247Z,37.90
2017-07-31T13:06:45.097Z,37.70
2017-07-31T13:09:12.670Z,37.90
2017-07-31T13:11:40.199Z,37.90
2017-07-31T13:14:08.706Z,37.80
2017-07-31T13:16:36.660Z,37.70
2017-07-31T13:19:04.952Z,37.50
2017-07-31T13:21:32.485Z,37.50
2017-07-31T13:24:00.992Z,37.50
2017-07-31T13:26:28.530Z,37.50
2017-07-31T13:28:56.878Z,38.10
2017-07-31T13:31:24.416Z,37.40
2017-07-31T13:33:51.980Z,37.30
2017-07-31T13:36:19.509Z,37.20
2017-07-31T13:38:47.310Z,37.40
2017-07-31T13:41:14.851Z,37.20
2017-07-31T13:43:42.425Z,37.40
2017-07-31T13:46:09.958Z,36.90
2017-07-31T13:48:37.679Z,36.70
2017-07-31T13:51:05.210Z,37.00
2017-07-31T13:53:32.750Z,36.90
2017-07-31T13:56:00.953Z,36.60
2017-07-31T13:58:28.484Z,37.10
2017-07-31T14:00:56.019Z,37.00
2017-07-31T14:03:24.362Z,36.50
2017-07-31T14:05:52.418Z,36.40
2017-07-31T14:08:20.099Z,36.10
2017-07-31T14:10:47.632Z,35.40
2017-07-31T14:13:15.253Z,35.30
2017-07-31T14:15:43.690Z,35.20
2017-07-31T14:18:16.680Z,35.10
2017-07-31T14:20:44.217Z,35.10
2017-07-31T14:23:11.794Z,35.50
2017-07-31T14:25:39.360Z,35.80
2017-07-31T14:28:06.893Z,35.90
2017-07-31T14:30:34.422Z,35.50
2017-07-31T14:33:03.047Z,35.00
2017-07-31T14:35:30.582Z,34.90
2017-07-31T14:37:58.117Z,35.10
2017-07-31T14:40:26.765Z,36.00
2017-07-31T14:42:54.293Z,35.50
2017-07-31T14:45:21.887Z,34.80
2017-07-31T14:47:49.423Z,34.60
2017-07-31T14:50:16.958Z,34.90
2017-07-31T14:52:45.301Z,34.70
2017-07-31T14:55:13.359Z,34.70
2017-07-31T14:57:40.893Z,35.20
2017-07-31T15:00:08.425Z,35.60
2017-07-31T15:02:36.762Z,35.70
2017-07-31T15:05:04.289Z,35.60
2017-07-31T15:07:32.736Z,34.80
2017-07-31T15:10:01.037Z,34.80
2017-07-31T15:12:33.765Z,34.80
2017-07-31T15:15:01.293Z,35.20
2017-07-31T15:17:29.134Z,35.20
2017-07-31T15:19:56.876Z,35.80
2017-07-31T15:22:24.477Z,35.90
2017-07-31T15:24:52.090Z,35.60
2017-07-31T15:27:20.298Z,35.20
2017-07-31T15:29:47.841Z,34.90
2017-07-31T15:32:15.381Z,34.50
2017-07-31T15:34:42.952Z,34.50
2017-07-31T15:37:10.490Z,34.30
2017-07-31T15:39:38.062Z,34.20
2017-07-31T15:42:05.603Z,34.00
2017-07-31T15:44:33.241Z,33.90
2017-07-31T15:47:00.769Z,34.40
2017-07-31T15:49:29.105Z,33.90
2017-07-31T15:51:56.637Z,33.80
2017-07-31T15:54:24.207Z,33.80
2017-07-31T15:56:51.751Z,33.80
2017-07-31T15:59:19.413Z,34.20
2017-07-31T16:01:46.940Z,35.20
2017-07-31T16:04:14.871Z,35.50
2017-07-31T16:06:42.533Z,35.60
2017-07-31T16:09:10.069Z,36.10
2017-07-31T16:11:37.640Z,36.10
2017-07-31T16:14:05.181Z,35.60
2017-07-31T16:16:32.845Z,35.70
2017-07-31T16:19:00.374Z,36.30
2017-07-31T16:21:28.709Z,37.20
2017-07-31T16:23:56.247Z,36.60
2017-07-31T16:26:23.777Z,36.80
2017-07-31T16:28:52.232Z,36.20
2017-07-31T16:31:20.182Z,36.00
2017-07-31T16:33:47.714Z,36.00
2017-07-31T16:36:15.246Z,36.10
2017-07-31T16:38:55.970Z,37.00
2017-07-31T16:41:47.110Z,36.90
2017-07-31T16:44:26.597Z,37.00
2017-07-31T16:46:54.207Z,37.50
2017-07-31T16:49:21.844Z,37.80
2017-07-31T16:51:49.381Z,37.90
2017-07-31T16:54:16.915Z,38.10
2017-07-31T16:56:45.323Z,39.10
2017-07-31T16:59:13.322Z,39.00
2017-07-31T17:01:41.095Z,39.50
2017-07-31T17:04:08.646Z,39.70
2017-07-31T17:06:36.549Z,39.90
2017-07-31T17:09:04.850Z,39.30
2017-07-31T17:11:32.666Z,39.70
2017-07-31T17:14:00.420Z,39.60
2017-07-31T17:16:27.989Z,39.70
2017-07-31T17:18:55.516Z,39.80
2017-07-31T17:21:23.514Z,40.00
2017-07-31T17:23:51.046Z,40.20
2017-07-31T17:26:18.577Z,40.40
2017-07-31T17:28:46.922Z,40.70
2017-07-31T17:31:14.777Z,40.60
2017-07-31T17:33:42.309Z,40.80
2017-07-31T17:36:09.886Z,41.20
2017-07-31T17:38:37.424Z,41.30
2017-07-31T17:41:05.098Z,41.60
2017-07-31T17:43:32.678Z,41.70
2017-07-31T17:46:00.213Z,41.80
2017-07-31T17:48:28.113Z,41.80
2017-07-31T17:50:55.645Z,41.90
2017-07-31T17:53:23.368Z,42.10
2017-07-31T17:55:53.587Z,43.00
2017-07-31T17:58:21.909Z,42.60
2017-07-31T18:00:49.489Z,42.60
2017-07-31T18:03:17.049Z,42.80
2017-07-31T18:05:45.081Z,42.90
2017-07-31T18:08:12.658Z,43.20
2017-07-31T18:10:40.189Z,43.70
2017-07-31T18:13:08.528Z,44.80
2017-07-31T18:15:36.068Z,44.80
2017-07-31T18:18:03.794Z,45.00
2017-07-31T18:20:32.093Z,45.40
2017-07-31T18:22:59.739Z,45.40
2017-07-31T18:25:28.040Z,46.10
2017-07-31T18:27:56.957Z,46.00
2017-07-31T18:30:24.494Z,46.40
2017-07-31T18:32:52.030Z,46.70
2017-07-31T18:35:19.608Z,47.30
2017-07-31T18:37:47.148Z,47.70
2017-07-31T18:40:14.901Z,47.90
2017-07-31T18:42:43.518Z,48.60
2017-07-31T18:45:11.054Z,48.60
2017-07-31T18:47:39.351Z,48.70
2017-07-31T18:50:07.309Z,48.60
2017-07-31T18:52:34.840Z,48.60
2017-07-31T18:55:02.374Z,48.70
2017-07-31T18:57:30.102Z,49.40
2017-07-31T18:59:57.635Z,49.10
2017-07-31T19:02:25.933Z,49.30
2017-07-31T19:04:53.510Z,49.20
2017-07-31T19:07:21.585Z,49.30
2017-07-31T19:09:49.176Z,49.40
2017-07-31T19:12:16.706Z,49.90
2017-07-31T19:14:44.246Z,50.40
2017-07-31T19:17:11.974Z,50.80
2017-07-31T19:19:39.513Z,51.00
2017-07-31T19:22:07.382Z,51.10
2017-07-31T19:24:34.916Z,51.00
2017-07-31T19:27:04.073Z,51.10
2017-07-31T19:29:32.386Z,51.30
2017-07-31T19:31:59.926Z,51.80
2017-07-31T19:34:30.410Z,52.40
2017-07-31T19:36:57.950Z,52.70
2017-07-31T19:39:25.489Z,52.90
2017-07-31T19:41:54.315Z,52.90
2017-07-31T19:44:21.858Z,53.00
2017-07-31T19:46:49.753Z,53.30
2017-07-31T19:49:17.288Z,53.50
2017-07-31T19:51:44.837Z,53.80
2017-07-31T19:54:12.541Z,53.90
2017-07-31T19:56:40.078Z,54.10
2017-07-31T19:59:07.653Z,54.10
2017-07-31T20:02:06.727Z,54.20
2017-07-31T20:10:32.822Z,55.10
2017-07-31T20:18:52.189Z,56.10
2017-07-31T20:21:19.912Z,55.60
2017-07-31T20:23:47.457Z,55.80
2017-07-31T20:26:17.089Z,56.00
2017-07-31T20:28:45.570Z,56.00
2017-07-31T20:31:13.884Z,56.70
2017-07-31T20:33:41.893Z,56.60
2017-07-31T20:36:09.431Z,57.00
2017-07-31T20:38:36.974Z,57.30
2017-07-31T20:41:05.081Z,57.50
2017-07-31T20:43:32.618Z,57.50
2017-07-31T20:46:00.157Z,57.30
2017-07-31T20:48:28.210Z,57.20
2017-07-31T20:50:56.600Z,58.20
2017-07-31T20:53:24.149Z,58.20
2017-07-31T20:55:52.668Z,59.00
2017-07-31T20:58:20.252Z,59.00
2017-07-31T21:00:47.782Z,59.40
2017-07-31T21:03:15.363Z,59.60
2017-07-31T21:05:42.898Z,59.90
2017-07-31T21:08:10.793Z,60.10
2017-07-31T21:10:38.333Z,60.40
2017-07-31T21:13:05.860Z,60.80
2017-07-31T21:15:34.201Z,62.30
2017-07-31T21:18:02.163Z,62.30
2017-07-31T21:20:29.697Z,63.30
2017-07-31T21:22:57.474Z,63.90
2017-07-31T21:25:25.124Z,64.70
2017-07-31T21:27:52.669Z,65.60
2017-07-31T21:30:20.253Z,65.60
2017-07-31T21:32:49.804Z,65.40
2017-07-31T21:35:17.533Z,65.80
2017-07-31T21:37:45.073Z,66.00
2017-07-31T21:40:12.605Z,66.30
2017-07-31T21:42:41.525Z,67.50
2017-07-31T21:45:09.066Z,67.50
2017-07-31T21:47:36.599Z,68.00
2017-07-31T21:50:04.180Z,68.20
2017-07-31T21:52:32.536Z,68.90
2017-07-31T21:55:00.111Z,68.90
2017-07-31T21:57:28.417Z,69.00
2017-07-31T21:59:56.184Z,69.00
2017-07-31T22:02:23.728Z,69.10
2017-07-31T22:04:52.118Z,69.50
2017-07-31T22:07:19.657Z,70.20
2017-07-31T22:09:47.959Z,70.50
2017-07-31T22:12:15.818Z,70.50
2017-07-31T22:14:43.361Z,71.00
2017-07-31T22:17:26.952Z,72.80
2017-07-31T22:19:54.493Z,72.00
2017-07-31T22:22:22.040Z,72.30
2017-07-31T22:24:49.662Z,72.80
2017-07-31T22:27:17.201Z,72.90
2017-07-31T22:29:48.449Z,73.00
2017-07-31T22:32:15.981Z,73.30
2017-07-31T22:34:43.921Z,73.20
2017-07-31T22:37:11.490Z,73.30
2017-07-31T22:39:39.038Z,73.40
2017-07-31T22:42:06.626Z,73.50
2017-07-31T22:44:34.166Z,73.50
2017-07-31T22:47:02.605Z,73.50
2017-07-31T22:49:30.149Z,73.60
2017-07-31T22:51:57.725Z,73.60
2017-07-31T22:54:25.263Z,73.50
2017-07-31T22:56:52.844Z,73.60
2017-07-31T22:59:20.382Z,73.70
2017-07-31T23:01:47.978Z,74.00
2017-07-31T23:04:15.526Z,74.00
2017-07-31T23:06:43.252Z,74.10
2017-07-31T23:09:11.165Z,74.10
2017-07-31T23:11:38.704Z,74.20
2017-07-31T23:14:06.250Z,74.00
2017-07-31T23:16:33.838Z,74.00
2017-07-31T23:19:01.405Z,74.00
2017-07-31T23:21:29.053Z,74.40
2017-07-31T23:23:56.600Z,74.60
2017-07-31T23:26:24.190Z,75.00
2017-07-31T23:28:51.737Z,75.50
2017-07-31T23:31:19.349Z,76.10
2017-07-31T23:33:46.890Z,76.60
2017-07-31T23:36:15.205Z,77.50
2017-07-31T23:38:43.218Z,77.50
2017-07-31T23:41:11.049Z,77.70
2017-07-31T23:43:38.592Z,77.90
2017-07-31T23:46:06.134Z,78.10
2017-07-31T23:48:34.551Z,78.70
2017-07-31T23:51:02.397Z,78.60
2017-07-31T23:53:29.942Z,78.80
2017-07-31T23:55:58.248Z,79.30
2017-07-31T23:58:26.153Z,79.30
